Time;durP1;ratioP1;P1;durP2;ratioP2;P2;SDS_P1;SDS_P2;PMS_P1;PMS_P2;Temp;Humidity;BMP_temperature;BMP_pressure;BME280_temperature;BME280_humidity;BME280_pressure;Samples;Min_cycle;Max_cycle;Signal;HPM_P1;HPM_P2
2023/10/02 00:00:19;;;;;;;7.57;3.05;;;18.80;96.30;;;;;;5063130;28;20072;-67
2023/10/02 00:02:46;;;;;;;7.82;3.15;;;18.80;96.20;;;;;;5063117;28;20067;-67
2023/10/02 00:05:40;;;;;;;6.38;3.10;;;18.70;96.30;;;;;;5059327;28;20024;-67
2023/10/02 00:08:00;;;;;;;5.60;2.63;;;18.70;96.40;;;;;;5056314;28;20033;-67
2023/10/02 00:10:29;;;;;;;6.00;2.72;;;18.60;96.50;;;;;;5058351;28;20036;-67
2023/10/02 00:12:59;;;;;;;7.22;2.90;;;18.60;96.60;;;;;;5063027;28;20037;-67
2023/10/02 00:15:25;;;;;;;6.65;2.92;;;18.60;96.60;;;;;;5063186;28;20040;-67
2023/10/02 00:17:51;;;;;;;7.40;3.38;;;18.60;96.70;;;;;;5065429;28;20029;-66
2023/10/02 00:20:26;;;;;;;6.65;3.00;;;18.60;96.80;;;;;;5065781;28;20752;-67
2023/10/02 00:22:52;;;;;;;6.43;2.88;;;18.60;96.80;;;;;;5058480;28;20042;-67
2023/10/02 00:25:20;;;;;;;8.32;3.22;;;18.60;96.90;;;;;;5066750;28;20028;-67
2023/10/02 00:27:54;;;;;;;9.88;3.05;;;18.60;96.90;;;;;;5066390;28;20098;-67
2023/10/02 00:30:30;;;;;;;6.28;3.25;;;18.70;96.90;;;;;;5066965;28;20059;-67
2023/10/02 00:32:56;;;;;;;7.22;3.65;;;18.70;96.90;;;;;;5065074;28;20032;-67
2023/10/02 00:35:22;;;;;;;8.95;3.35;;;18.70;97.00;;;;;;5065202;28;20032;-67
2023/10/02 00:37:48;;;;;;;7.97;3.33;;;18.70;96.90;;;;;;5066829;28;20040;-67
2023/10/02 00:40:22;;;;;;;7.68;3.70;;;18.70;97.00;;;;;;5064728;28;20033;-67
2023/10/02 00:42:55;;;;;;;6.18;3.17;;;18.70;97.00;;;;;;5064776;28;20032;-67
2023/10/02 00:45:37;;;;;;;8.13;3.70;;;18.80;96.90;;;;;;5066554;28;20058;-67
2023/10/02 00:50:50;;;;;;;7.40;3.08;;;18.80;96.80;;;;;;5064897;28;20024;-67
2023/10/02 00:53:24;;;;;;;6.57;3.00;;;18.80;96.90;;;;;;5065090;28;20545;-67
2023/10/02 00:55:51;;;;;;;6.72;3.28;;;18.80;96.90;;;;;;5061967;28;20070;-67
2023/10/02 00:58:19;;;;;;;8.45;3.47;;;18.80;96.80;;;;;;5064393;28;20105;-67
2023/10/02 01:00:50;;;;;;;9.10;3.40;;;18.80;96.80;;;;;;5065875;28;20756;-67
2023/10/02 01:03:16;;;;;;;8.10;3.38;;;18.90;96.90;;;;;;5064222;28;20140;-67
2023/10/02 01:06:05;;;;;;;7.97;3.25;;;18.80;97.00;;;;;;5066430;28;20082;-67
2023/10/02 01:08:43;;;;;;;7.13;3.42;;;18.80;96.90;;;;;;5066255;28;20072;-67
2023/10/02 01:11:13;;;;;;;8.02;3.88;;;18.90;97.00;;;;;;5065877;28;20029;-67
2023/10/02 01:13:40;;;;;;;6.95;3.45;;;18.90;96.90;;;;;;5066095;28;20055;-67
2023/10/02 01:16:08;;;;;;;8.40;3.63;;;18.90;97.00;;;;;;5065580;28;20032;-67
2023/10/02 01:18:38;;;;;;;6.30;3.22;;;18.90;97.00;;;;;;5063569;28;20060;-67
2023/10/02 01:21:11;;;;;;;7.22;3.20;;;18.80;97.10;;;;;;5055948;28;20577;-67
2023/10/02 01:24:07;;;;;;;9.55;3.22;;;18.90;97.10;;;;;;5062086;28;20037;-67
2023/10/02 01:26:50;;;;;;;8.38;3.58;;;18.80;97.10;;;;;;5063184;28;20052;-67
2023/10/02 01:29:17;;;;;;;5.97;3.50;;;18.80;97.00;;;;;;5062757;28;20373;-67
2023/10/02 01:31:44;;;;;;;7.30;3.25;;;18.80;97.00;;;;;;5064493;28;20032;-66
2023/10/02 01:34:32;;;;;;;6.78;3.65;;;18.80;97.00;;;;;;5065146;28;20030;-67
2023/10/02 01:36:58;;;;;;;8.05;3.72;;;18.90;97.00;;;;;;5062456;28;20460;-67
2023/10/02 01:39:23;;;;;;;6.70;3.72;;;18.90;97.20;;;;;;5060991;28;20063;-67
2023/10/02 01:41:52;;;;;;;7.93;3.78;;;18.90;97.30;;;;;;5063327;28;20659;-67
2023/10/02 01:44:22;;;;;;;6.80;3.10;;;18.90;97.30;;;;;;5061428;28;20055;-67
2023/10/02 01:46:52;;;;;;;8.63;3.67;;;18.90;97.40;;;;;;5064667;28;20098;-67
2023/10/02 01:49:25;;;;;;;6.55;3.58;;;18.90;97.50;;;;;;5065740;28;20059;-67
2023/10/02 01:52:03;;;;;;;8.05;3.47;;;18.90;97.50;;;;;;5063356;28;20095;-67
2023/10/02 01:54:29;;;;;;;6.68;3.45;;;18.90;97.40;;;;;;5059734;28;20078;-67
2023/10/02 01:56:56;;;;;;;7.68;3.80;;;18.90;97.40;;;;;;5063854;28;20029;-67
2023/10/02 01:59:24;;;;;;;8.48;3.40;;;18.90;97.40;;;;;;5063830;28;20078;-67
2023/10/02 02:01:52;;;;;;;6.97;3.38;;;18.80;97.40;;;;;;5063817;28;20031;-67
2023/10/02 02:04:19;;;;;;;9.50;3.92;;;18.80;97.40;;;;;;5063519;28;20024;-67
2023/10/02 02:06:52;;;;;;;6.15;3.20;;;18.80;97.40;;;;;;5065194;28;20045;-67
2023/10/02 02:09:25;;;;;;;6.63;3.15;;;18.80;97.40;;;;;;5065127;28;20047;-67
2023/10/02 02:12:10;;;;;;;6.88;3.17;;;18.70;97.40;;;;;;5065061;28;20534;-67
2023/10/02 02:14:49;;;;;;;7.15;3.35;;;18.70;97.40;;;;;;5064625;28;20086;-67
2023/10/02 02:17:20;;;;;;;9.73;3.80;;;18.70;97.40;;;;;;5065192;28;20037;-67
2023/10/02 02:19:50;;;;;;;8.60;3.67;;;18.70;97.40;;;;;;5063468;28;20028;-67
2023/10/02 02:22:16;;;;;;;10.13;3.72;;;18.70;97.40;;;;;;5064858;28;20106;-67
2023/10/02 02:24:43;;;;;;;7.30;3.55;;;18.70;97.30;;;;;;5064623;28;20040;-67
2023/10/02 02:27:09;;;;;;;7.93;3.58;;;18.70;97.30;;;;;;5063485;28;20024;-67
2023/10/02 02:29:34;;;;;;;6.47;3.20;;;18.60;97.40;;;;;;5062828;28;20035;-67
2023/10/02 02:32:00;;;;;;;6.60;3.30;;;18.50;97.40;;;;;;5063001;28;20261;-67
2023/10/02 02:34:26;;;;;;;8.70;3.67;;;18.50;97.50;;;;;;5062368;28;20145;-67
2023/10/02 02:36:54;;;;;;;8.32;3.90;;;18.40;97.50;;;;;;5064544;28;20737;-67
2023/10/02 02:39:25;;;;;;;7.85;3.88;;;18.40;97.50;;;;;;5060639;28;20033;-67
2023/10/02 02:42:18;;;;;;;9.00;3.95;;;18.40;97.60;;;;;;5064572;28;20142;-67
2023/10/02 02:44:49;;;;;;;7.30;3.45;;;18.30;97.60;;;;;;5064012;28;20060;-67
2023/10/02 02:47:21;;;;;;;7.43;3.90;;;18.30;97.60;;;;;;5064401;28;20063;-67
2023/10/02 02:49:52;;;;;;;8.45;3.53;;;18.20;97.70;;;;;;5064681;28;20024;-67
2023/10/02 02:52:28;;;;;;;8.40;3.72;;;18.10;97.80;;;;;;5062011;28;20025;-67
2023/10/02 02:54:59;;;;;;;7.53;3.40;;;18.10;97.80;;;;;;5060269;28;20639;-67
2023/10/02 02:57:30;;;;;;;8.82;4.00;;;18.10;97.80;;;;;;5064652;28;20419;-67
2023/10/02 03:02:53;;;;;;;8.73;4.13;;;18.00;97.90;;;;;;5062663;28;20036;-67
2023/10/02 03:05:21;;;;;;;9.27;4.13;;;18.00;97.90;;;;;;5061472;28;20121;-67
2023/10/02 03:07:56;;;;;;;9.52;3.85;;;18.00;98.00;;;;;;5063313;28;20037;-67
2023/10/02 03:10:23;;;;;;;8.52;3.97;;;18.00;98.10;;;;;;5064444;28;20034;-67
2023/10/02 03:12:51;;;;;;;9.98;4.80;;;18.00;98.20;;;;;;5063618;28;20128;-67
2023/10/02 03:15:18;;;;;;;13.57;5.97;;;18.00;98.40;;;;;;5061747;28;20070;-67
2023/10/02 03:17:45;;;;;;;13.45;6.53;;;17.90;98.50;;;;;;5063816;28;20052;-67
2023/10/02 03:20:25;;;;;;;14.23;6.78;;;18.00;98.50;;;;;;5062524;28;20042;-67
2023/10/02 03:22:57;;;;;;;11.10;6.00;;;17.90;98.60;;;;;;5063305;28;20033;-67
2023/10/02 03:25:40;;;;;;;11.93;4.97;;;17.90;98.60;;;;;;5060869;28;20480;-67
2023/10/02 03:28:28;;;;;;;9.25;4.70;;;17.90;98.80;;;;;;5054061;28;20033;-67
2023/10/02 03:30:55;;;;;;;11.07;4.40;;;18.00;98.80;;;;;;5061866;28;20393;-67
2023/10/02 03:33:21;;;;;;;11.88;4.68;;;17.90;98.80;;;;;;5063717;28;20024;-67
2023/10/02 03:36:07;;;;;;;10.45;4.55;;;18.00;98.70;;;;;;5063784;28;20043;-67
2023/10/02 03:38:43;;;;;;;;;;;18.00;98.60;;;;;;5060877;28;20450;-67
2023/10/02 03:41:11;;;;;;;7.88;3.50;;;18.00;98.50;;;;;;5064109;28;20010;-67
2023/10/02 03:43:43;;;;;;;8.05;3.92;;;18.00;98.60;;;;;;5063532;28;20036;-67
2023/10/02 03:46:16;;;;;;;8.63;3.85;;;18.00;98.60;;;;;;5064093;28;20047;-67
2023/10/02 03:48:50;;;;;;;9.98;3.88;;;18.00;98.60;;;;;;5062590;28;20040;-67
2023/10/02 03:51:35;;;;;;;11.00;4.15;;;18.00;98.50;;;;;;5064104;28;20035;-67
2023/10/02 03:54:17;;;;;;;8.05;3.78;;;18.00;98.50;;;;;;5060145;28;20024;-67
2023/10/02 03:56:50;;;;;;;11.27;4.50;;;18.00;98.40;;;;;;5065266;28;20530;-67
2023/10/02 03:59:26;;;;;;;8.30;4.28;;;17.90;98.50;;;;;;5066828;28;20032;-67
2023/10/02 04:01:54;;;;;;;6.82;3.90;;;17.90;98.50;;;;;;5067376;28;20025;-67
2023/10/02 04:04:21;;;;;;;8.48;4.00;;;17.90;98.50;;;;;;5067192;28;20039;-67
2023/10/02 04:06:50;;;;;;;11.10;4.32;;;17.90;98.50;;;;;;5066993;28;20044;-66
2023/10/02 04:09:25;;;;;;;13.27;4.68;;;17.80;98.50;;;;;;5067504;28;20025;-66
2023/10/02 04:11:54;;;;;;;8.82;4.10;;;17.80;98.40;;;;;;5067075;28;20036;-66
2023/10/02 04:14:31;;;;;;;8.82;3.75;;;17.70;98.30;;;;;;5062273;28;20047;-66
2023/10/02 04:17:46;;;;;;;10.23;4.47;;;17.70;98.30;;;;;;5065868;28;20047;-67
2023/10/02 04:19:51;;;;;;;11.93;5.15;;;17.70;98.30;;;;;;5059412;28;20503;-67
2023/10/02 04:22:28;;;;;;;11.77;4.97;;;17.60;98.30;;;;;;5068167;28;20036;-66
2023/10/02 04:24:58;;;;;;;18.83;5.15;;;17.50;98.40;;;;;;5068258;28;20029;-66
2023/10/02 04:28:13;;;;;;;11.25;4.50;;;17.50;98.60;;;;;;5067996;28;20036;-66
2023/10/02 04:30:24;;;;;;;11.13;4.88;;;17.50;98.50;;;;;;5057225;28;20115;-67
2023/10/02 04:32:51;;;;;;;9.73;4.72;;;17.50;98.50;;;;;;5067980;28;20122;-66
2023/10/02 04:38:09;;;;;;;10.43;5.05;;;17.40;98.50;;;;;;5061518;28;20874;-67
2023/10/02 04:40:44;;;;;;;13.43;4.78;;;17.40;98.60;;;;;;5068197;28;20032;-67
2023/10/02 04:43:19;;;;;;;8.73;4.30;;;17.30;98.70;;;;;;5067397;28;20037;-66
2023/10/02 04:45:52;;;;;;;10.60;4.70;;;17.30;98.80;;;;;;5067761;28;20066;-67
2023/10/02 04:48:27;;;;;;;13.65;5.85;;;17.20;98.90;;;;;;5068216;28;20039;-66
2023/10/02 04:50:56;;;;;;;10.20;4.50;;;17.20;98.90;;;;;;5066401;28;20036;-67
2023/10/02 04:53:22;;;;;;;11.30;4.68;;;17.20;99.10;;;;;;5067677;28;20113;-66
2023/10/02 04:56:07;;;;;;;11.05;5.35;;;17.10;99.10;;;;;;5067410;28;20037;-67
2023/10/02 04:58:39;;;;;;;12.63;4.95;;;17.10;99.30;;;;;;5066898;28;20127;-67
2023/10/02 05:03:35;;;;;;;10.70;4.90;;;17.00;99.40;;;;;;5067286;28;20075;-66
2023/10/02 05:06:03;;;;;;;8.02;4.10;;;17.00;99.50;;;;;;5066709;28;20093;-66
2023/10/02 05:08:40;;;;;;;9.95;4.80;;;17.00;99.60;;;;;;5065722;28;20038;-67
2023/10/02 05:11:07;;;;;;;8.75;4.45;;;16.90;99.60;;;;;;5051062;28;20749;-66
2023/10/02 05:16:38;;;;;;;13.23;5.07;;;16.90;99.70;;;;;;5067524;28;20036;-67
2023/10/02 05:19:06;;;;;;;11.52;5.28;;;16.90;99.80;;;;;;5066576;28;20407;-67
2023/10/02 05:21:39;;;;;;;11.07;4.50;;;16.90;99.80;;;;;;5066965;28;20032;-68
2023/10/02 05:24:13;;;;;;;10.52;4.22;;;16.90;99.90;;;;;;5066757;28;20039;-67
2023/10/02 05:26:44;;;;;;;13.63;4.97;;;16.90;99.90;;;;;;5065198;28;20128;-67
2023/10/02 05:29:17;;;;;;;10.07;4.88;;;16.80;99.90;;;;;;5065558;28;20067;-67
2023/10/02 05:31:49;;;;;;;10.98;5.55;;;16.80;99.90;;;;;;5065581;28;20032;-67
2023/10/02 05:34:24;;;;;;;10.80;4.50;;;16.80;99.90;;;;;;5065383;28;20036;-67
2023/10/02 05:39:42;;;;;;;12.52;5.22;;;16.90;99.90;;;;;;5065562;28;20072;-66
2023/10/02 05:42:13;;;;;;;11.95;4.68;;;16.90;99.90;;;;;;5065442;28;20066;-66
2023/10/02 05:44:41;;;;;;;13.23;5.03;;;16.90;99.90;;;;;;5065482;28;20060;-65
2023/10/02 05:47:07;;;;;;;11.45;5.38;;;16.90;99.90;;;;;;5065726;28;20041;-65
2023/10/02 05:49:48;;;;;;;11.07;4.72;;;17.00;99.90;;;;;;5065492;28;20043;-65
2023/10/02 05:52:23;;;;;;;12.75;4.70;;;17.00;99.90;;;;;;5065794;28;20039;-65
2023/10/02 05:54:54;;;;;;;9.68;4.32;;;17.00;99.90;;;;;;5065697;28;20071;-65
2023/10/02 05:57:20;;;;;;;11.63;4.80;;;17.10;99.90;;;;;;5064892;28;20024;-65
2023/10/02 05:59:54;;;;;;;10.70;5.20;;;17.10;99.90;;;;;;5065244;28;20454;-65
2023/10/02 06:02:22;;;;;;;12.60;5.80;;;17.10;99.90;;;;;;5065293;28;20446;-65
2023/10/02 06:04:53;;;;;;;11.05;4.88;;;17.20;99.90;;;;;;5065583;28;20137;-65
2023/10/02 06:10:08;;;;;;;15.60;5.18;;;17.30;99.90;;;;;;5059294;28;20032;-65
2023/10/02 06:12:45;;;;;;;12.60;5.10;;;17.30;99.90;;;;;;5064693;28;20041;-65
2023/10/02 06:17:58;;;;;;;9.52;4.75;;;17.40;99.60;;;;;;5056364;28;20495;-65
2023/10/02 06:20:25;;;;;;;13.30;5.53;;;17.50;99.50;;;;;;5065130;28;20052;-65
2023/10/02 06:23:03;;;;;;;11.27;5.00;;;17.50;99.50;;;;;;5064939;28;20047;-65
2023/10/02 06:25:29;;;;;;;11.00;4.85;;;17.50;99.30;;;;;;5064687;28;20028;-65
2023/10/02 06:28:19;;;;;;;11.07;5.07;;;17.60;99.40;;;;;;5064657;28;20032;-65
2023/10/02 06:30:43;;;;;;;9.77;4.85;;;17.60;99.40;;;;;;5063441;28;20028;-65
2023/10/02 06:33:10;;;;;;;15.02;5.93;;;17.60;99.40;;;;;;5065234;28;20040;-65
2023/10/02 06:35:44;;;;;;;13.05;5.18;;;17.70;99.30;;;;;;5065780;28;20181;-65
2023/10/02 06:38:16;;;;;;;11.40;4.72;;;17.70;99.10;;;;;;5065834;28;20025;-65
2023/10/02 06:40:55;;;;;;;13.20;6.10;;;17.80;99.20;;;;;;5065651;28;20024;-65
2023/10/02 06:43:28;;;;;;;14.18;6.15;;;17.80;98.70;;;;;;5065536;28;20048;-65
2023/10/02 06:46:16;;;;;;;13.55;5.45;;;17.90;98.70;;;;;;5066023;28;20043;-65
2023/10/02 06:48:46;;;;;;;11.23;5.03;;;17.90;98.70;;;;;;5065525;28;20040;-65
2023/10/02 06:51:16;;;;;;;9.93;5.20;;;18.00;98.70;;;;;;5065878;28;20028;-65
2023/10/02 06:53:42;;;;;;;12.73;5.72;;;18.00;98.50;;;;;;5065255;28;20032;-65
2023/10/02 06:56:12;;;;;;;14.43;5.90;;;18.10;98.50;;;;;;5062085;28;20020;-65
2023/10/02 06:58:56;;;;;;;14.20;5.85;;;18.10;98.50;;;;;;5065393;28;20116;-65
2023/10/02 07:01:27;;;;;;;12.98;5.32;;;18.20;98.20;;;;;;5065389;28;20039;-65
2023/10/02 07:03:55;;;;;;;13.65;5.72;;;18.30;98.00;;;;;;5064715;28;20110;-65
2023/10/02 07:06:26;;;;;;;13.48;5.85;;;18.40;97.90;;;;;;5065379;28;20093;-65
2023/10/02 07:09:10;;;;;;;12.43;5.32;;;18.40;98.00;;;;;;5065429;28;20125;-65
2023/10/02 07:11:39;;;;;;;12.77;5.10;;;18.50;98.10;;;;;;5064993;28;20036;-65
2023/10/02 07:14:06;;;;;;;12.93;5.40;;;18.50;98.30;;;;;;5065163;28;20040;-65
2023/10/02 07:16:32;;;;;;;14.18;5.20;;;18.70;98.10;;;;;;5065258;28;20412;-66
2023/10/02 07:18:59;;;;;;;13.73;5.82;;;19.00;97.50;;;;;;5061461;28;20054;-65
2023/10/02 07:21:27;;;;;;;11.65;5.43;;;19.30;97.00;;;;;;5065166;28;20749;-65
2023/10/02 07:23:53;;;;;;;14.65;5.35;;;19.50;96.60;;;;;;5064894;28;20032;-65
2023/10/02 07:26:20;;;;;;;14.48;5.15;;;19.60;96.10;;;;;;5066493;28;20058;-65
2023/10/02 07:28:50;;;;;;;15.65;6.18;;;19.70;96.10;;;;;;5067557;28;20065;-65
2023/10/02 07:31:23;;;;;;;15.23;6.22;;;19.60;96.10;;;;;;5069455;28;20485;-65
2023/10/02 07:33:54;;;;;;;11.25;5.07;;;19.60;96.10;;;;;;5067827;28;20028;-65
2023/10/02 07:36:20;;;;;;;12.23;5.82;;;19.60;96.20;;;;;;5069331;28;20034;-65
2023/10/02 07:38:47;;;;;;;11.10;5.28;;;19.60;96.10;;;;;;5068970;28;20036;-65
2023/10/02 07:41:31;;;;;;;13.40;5.80;;;19.60;96.00;;;;;;5068683;28;20118;-65
2023/10/02 07:44:07;;;;;;;13.70;5.78;;;19.60;96.10;;;;;;5068757;28;20044;-65
2023/10/02 07:46:33;;;;;;;14.50;5.10;;;19.70;96.10;;;;;;5065615;28;20411;-65
2023/10/02 07:49:04;;;;;;;11.20;5.07;;;19.70;96.20;;;;;;5068784;28;20037;-65
2023/10/02 07:51:37;;;;;;;14.13;5.68;;;19.80;96.10;;;;;;5069063;28;20024;-65
2023/10/02 07:54:07;;;;;;;11.55;5.07;;;19.90;96.20;;;;;;5067820;28;20029;-65
2023/10/02 07:56:35;;;;;;;12.18;4.90;;;20.00;96.00;;;;;;5068660;28;20035;-65
2023/10/02 07:59:01;;;;;;;12.32;5.28;;;20.10;96.20;;;;;;5068441;28;20056;-65
2023/10/02 08:01:28;;;;;;;13.20;5.85;;;20.20;95.90;;;;;;5068350;28;20448;-65
2023/10/02 08:03:55;;;;;;;13.18;5.57;;;20.30;96.00;;;;;;5068640;28;20480;-64
2023/10/02 08:06:33;;;;;;;10.20;5.03;;;20.40;95.70;;;;;;5069065;28;20032;-65
2023/10/02 08:11:54;;;;;;;10.82;4.82;;;20.60;95.20;;;;;;5068329;28;20052;-65
2023/10/02 08:17:21;;;;;;;11.35;5.00;;;20.90;94.90;;;;;;5061549;28;20073;-68
2023/10/02 08:19:58;;;;;;;10.55;4.97;;;20.90;94.60;;;;;;5068299;28;20047;-65
2023/10/02 08:22:44;;;;;;;14.88;5.28;;;21.00;94.60;;;;;;5066563;28;20040;-65
2023/10/02 08:25:14;;;;;;;12.13;5.20;;;21.10;94.60;;;;;;5057640;28;20389;-66
2023/10/02 08:27:44;;;;;;;12.82;5.03;;;21.20;94.40;;;;;;5057381;28;20088;-65
2023/10/02 08:30:27;;;;;;;13.57;5.50;;;21.30;94.30;;;;;;5056440;28;20039;-65
2023/10/02 08:33:07;;;;;;;14.38;5.22;;;21.40;94.10;;;;;;5057629;28;20453;-66
2023/10/02 08:35:33;;;;;;;12.75;4.75;;;21.50;94.20;;;;;;5058257;28;20071;-66
2023/10/02 08:37:59;;;;;;;12.30;5.65;;;21.60;93.80;;;;;;5058612;28;20067;-66
2023/10/02 08:40:26;;;;;;;11.57;5.20;;;21.70;93.90;;;;;;5054980;28;20048;-66
2023/10/02 08:42:53;;;;;;;11.98;5.40;;;21.80;93.60;;;;;;5059707;28;20041;-66
2023/10/02 08:45:23;;;;;;;12.73;5.40;;;21.90;93.80;;;;;;5059078;28;20724;-66
2023/10/02 08:47:49;;;;;;;11.57;5.05;;;22.10;93.20;;;;;;5057000;28;20044;-66
2023/10/02 08:50:16;;;;;;;14.70;5.70;;;22.20;93.40;;;;;;5058260;28;20017;-65
2023/10/02 08:52:52;;;;;;;12.68;5.47;;;22.30;93.30;;;;;;5054604;28;20037;-66
2023/10/02 08:58:17;;;;;;;9.15;4.50;;;22.60;92.80;;;;;;5057195;28;20460;-66
2023/10/02 09:03:48;;;;;;;10.15;4.47;;;22.90;92.40;;;;;;5056311;28;20127;-66
2023/10/02 09:06:26;;;;;;;13.85;4.65;;;23.00;92.30;;;;;;5056116;28;20814;-67
2023/10/02 09:11:37;;;;;;;11.18;4.55;;;23.30;92.30;;;;;;5057955;28;20039;-66
2023/10/02 09:15:24;;;;;;;10.43;4.32;;;23.40;91.70;;;;;;5059549;28;20021;-66
2023/10/02 09:20:07;;;;;;;10.25;4.57;;;23.40;91.30;;;;;;5057039;28;20052;-68
2023/10/02 09:22:41;;;;;;;9.45;4.18;;;23.40;91.30;;;;;;5055326;28;20025;-67
2023/10/02 09:25:37;;;;;;;12.75;4.72;;;23.50;91.30;;;;;;5057472;28;20565;-67
2023/10/02 09:28:04;;;;;;;11.57;5.10;;;23.50;91.70;;;;;;5054757;28;20051;-65
2023/10/02 09:33:02;;;;;;;11.48;4.88;;;23.50;91.00;;;;;;5053790;28;20026;-66
2023/10/02 09:35:29;;;;;;;11.20;4.75;;;23.60;91.10;;;;;;5057118;28;20094;-65
2023/10/02 09:37:58;;;;;;;13.30;5.03;;;23.70;90.80;;;;;;5056886;28;20067;-67
2023/10/02 09:40:28;;;;;;;9.43;4.35;;;23.80;90.30;;;;;;5058188;28;20029;-66
2023/10/02 09:43:03;;;;;;;12.98;4.78;;;23.80;90.60;;;;;;5060086;28;20075;-68
2023/10/02 09:45:35;;;;;;;15.88;4.75;;;23.80;90.70;;;;;;5058622;28;20396;-67
2023/10/02 09:48:05;;;;;;;11.88;4.85;;;23.90;90.80;;;;;;5055163;28;20611;-68
2023/10/02 09:50:41;;;;;;;13.25;4.18;;;23.90;90.90;;;;;;5054278;28;20037;-68
2023/10/02 09:53:09;;;;;;;12.43;4.47;;;24.00;90.60;;;;;;5055791;28;20025;-66
2023/10/02 09:55:41;;;;;;;9.52;4.55;;;24.10;90.90;;;;;;5053609;28;20099;-67
2023/10/02 09:58:26;;;;;;;9.20;4.43;;;24.20;90.60;;;;;;5059995;28;20047;-67
2023/10/02 10:03:56;;;;;;;10.52;4.25;;;24.50;89.10;;;;;;5071095;28;20033;-65
2023/10/02 10:06:29;;;;;;;8.70;4.65;;;24.60;87.80;;;;;;5052962;28;20078;-66
2023/10/02 10:11:41;;;;;;;15.80;7.15;;;24.70;87.20;;;;;;5054114;28;20123;-66
2023/10/02 10:14:37;;;;;;;18.50;8.65;;;24.80;88.90;;;;;;5055040;28;20119;-66
2023/10/02 10:17:12;;;;;;;21.45;11.35;;;24.80;87.80;;;;;;5055369;28;20028;-66
2023/10/02 10:19:41;;;;;;;;;;;25.00;87.70;;;;;;5055712;28;20028;-66
2023/10/02 10:22:36;;;;;;;9.38;5.22;;;25.30;86.80;;;;;;5051863;28;19943;-66
2023/10/02 10:27:41;;;;;;;10.60;5.07;;;26.40;83.40;;;;;;5054501;28;20036;-65
2023/10/02 10:30:19;;;;;;;9.35;4.82;;;27.30;80.90;;;;;;5055867;28;20040;-64
2023/10/02 10:32:46;;;;;;;10.02;4.68;;;27.90;78.90;;;;;;5056487;28;20112;-66
2023/10/02 10:35:30;;;;;;;8.82;4.50;;;27.70;77.70;;;;;;5052491;28;20032;-66
2023/10/02 10:37:56;;;;;;;10.77;4.70;;;27.10;78.00;;;;;;5054083;28;20066;-64
2023/10/02 10:40:43;;;;;;;12.30;7.13;;;26.60;79.40;;;;;;5055211;28;20047;-65
2023/10/02 10:43:12;;;;;;;9.27;4.88;;;26.40;80.70;;;;;;5054029;28;20043;-64
2023/10/02 10:45:39;;;;;;;15.63;8.18;;;26.80;80.10;;;;;;5052684;28;20573;-64
2023/10/02 10:48:18;;;;;;;20.00;11.55;;;26.70;78.60;;;;;;5054187;28;20038;-69
2023/10/02 10:50:57;;;;;;;24.95;13.05;;;26.20;78.90;;;;;;5053620;28;20056;-67
2023/10/02 10:53:26;;;;;;;15.25;7.78;;;26.00;79.60;;;;;;5052772;28;20043;-67
2023/10/02 10:55:55;;;;;;;15.45;8.07;;;25.90;80.40;;;;;;5054936;28;20033;-66
2023/10/02 10:58:33;;;;;;;12.63;5.65;;;25.90;80.30;;;;;;5053974;28;20763;-66
2023/10/02 11:01:13;;;;;;;12.88;6.15;;;26.00;79.50;;;;;;5052057;28;20029;-66
2023/10/02 11:03:39;;;;;;;12.48;5.30;;;25.80;80.30;;;;;;5053142;28;20089;-64
2023/10/02 11:06:10;;;;;;;14.15;5.93;;;25.70;80.20;;;;;;5051683;28;20039;-64
2023/10/02 11:08:40;;;;;;;16.38;6.05;;;25.60;80.60;;;;;;5053415;28;20903;-66
2023/10/02 11:11:19;;;;;;;15.02;8.35;;;25.60;81.60;;;;;;5054233;28;20041;-66
2023/10/02 11:13:54;;;;;;;15.07;7.22;;;25.50;82.00;;;;;;5052406;28;20028;-66
2023/10/02 11:16:34;;;;;;;12.45;5.28;;;25.50;80.60;;;;;;5053386;28;20115;-66
2023/10/02 11:19:14;;;;;;;10.30;5.07;;;25.40;80.80;;;;;;5053971;28;20404;-66
2023/10/02 11:22:01;;;;;;;11.18;5.55;;;25.40;81.20;;;;;;5053908;28;20036;-65
2023/10/02 11:24:27;;;;;;;16.83;8.65;;;25.50;82.10;;;;;;5050702;28;20041;-65
2023/10/02 11:27:04;;;;;;;13.02;6.88;;;25.60;80.40;;;;;;5055561;28;20077;-64
2023/10/02 11:29:40;;;;;;;11.52;5.55;;;25.70;81.00;;;;;;5053326;28;20033;-64
2023/10/02 11:32:19;;;;;;;11.63;5.50;;;25.80;80.40;;;;;;5054505;28;20031;-64
2023/10/02 11:34:45;;;;;;;12.02;5.22;;;25.80;81.00;;;;;;5054623;28;20037;-64
2023/10/02 11:37:12;;;;;;;13.32;4.72;;;25.70;79.90;;;;;;5055043;28;20480;-64
2023/10/02 11:39:38;;;;;;;14.95;5.75;;;25.90;80.30;;;;;;5052210;28;20029;-64
2023/10/02 11:42:06;;;;;;;11.18;5.45;;;25.90;79.60;;;;;;5056353;28;20025;-64
2023/10/02 11:44:32;;;;;;;27.33;14.10;;;25.80;79.10;;;;;;5054984;28;20408;-64
2023/10/02 11:46:59;;;;;;;14.98;7.22;;;25.80;79.20;;;;;;5058121;28;20194;-64
2023/10/02 11:49:29;;;;;;;12.88;6.68;;;25.80;79.60;;;;;;5054012;28;20033;-66
2023/10/02 11:52:03;;;;;;;9.68;5.20;;;25.80;79.30;;;;;;5052608;28;20029;-66
2023/10/02 11:54:35;;;;;;;9.80;5.35;;;26.00;80.30;;;;;;5053403;28;20029;-66
2023/10/02 11:57:01;;;;;;;11.77;5.68;;;26.10;79.40;;;;;;5054071;28;20028;-64
2023/10/02 11:59:30;;;;;;;11.63;4.78;;;26.10;78.90;;;;;;5050020;28;20162;-65
2023/10/02 12:01:57;;;;;;;10.57;5.07;;;26.20;79.10;;;;;;5054053;28;20045;-66
2023/10/02 12:04:23;;;;;;;9.60;4.93;;;26.30;78.60;;;;;;5052632;28;20125;-64
2023/10/02 12:06:52;;;;;;;9.45;4.65;;;26.30;78.80;;;;;;5054014;28;20040;-64
2023/10/02 12:09:19;;;;;;;11.32;5.57;;;26.30;78.30;;;;;;5053797;28;20036;-63
2023/10/02 12:11:45;;;;;;;11.05;5.47;;;26.30;77.90;;;;;;5055269;28;20048;-64
2023/10/02 12:14:11;;;;;;;11.38;4.97;;;26.30;78.10;;;;;;5056073;28;20025;-64
2023/10/02 12:16:38;;;;;;;11.02;5.07;;;26.30;79.20;;;;;;5056622;28;20162;-64
2023/10/02 12:19:04;;;;;;;9.15;4.53;;;26.30;78.60;;;;;;5055464;28;20043;-64
2023/10/02 12:21:30;;;;;;;10.15;4.60;;;26.20;78.70;;;;;;5058537;28;20029;-65
2023/10/02 12:24:00;;;;;;;11.02;4.70;;;26.20;77.80;;;;;;5059051;28;20051;-66
2023/10/02 12:26:27;;;;;;;10.55;4.65;;;26.10;78.80;;;;;;5056454;28;20043;-66
2023/10/02 12:28:52;;;;;;;9.88;4.75;;;26.00;79.00;;;;;;5057956;28;20064;-66
2023/10/02 12:31:19;;;;;;;8.20;4.35;;;26.00;79.70;;;;;;5053635;28;20056;-62
2023/10/02 12:33:48;;;;;;;9.93;5.10;;;26.10;79.30;;;;;;5072650;28;20036;-66
2023/10/02 12:36:15;;;;;;;10.27;4.75;;;26.00;78.40;;;;;;5057113;28;20108;-65
2023/10/02 12:38:42;;;;;;;9.48;4.70;;;26.10;79.00;;;;;;5059590;28;20119;-66
2023/10/02 12:41:14;;;;;;;10.75;5.65;;;26.00;79.70;;;;;;5055998;28;20025;-64
2023/10/02 12:43:42;;;;;;;11.30;5.57;;;26.10;80.20;;;;;;5056693;28;20040;-66
2023/10/02 12:46:10;;;;;;;9.82;4.55;;;26.10;79.40;;;;;;5057376;28;20032;-65
2023/10/02 12:48:36;;;;;;;11.25;5.57;;;26.20;79.80;;;;;;5059791;28;20040;-64
2023/10/02 12:51:06;;;;;;;10.85;5.70;;;26.20;80.10;;;;;;5056730;28;20028;-64
2023/10/02 12:53:35;;;;;;;12.43;5.40;;;26.10;79.70;;;;;;5057920;28;20495;-63
2023/10/02 12:56:00;;;;;;;11.55;4.93;;;26.10;80.10;;;;;;5058260;28;20032;-64
2023/10/02 12:58:27;;;;;;;10.40;5.18;;;26.10;79.60;;;;;;5060083;28;20043;-64
2023/10/02 13:00:54;;;;;;;9.25;4.47;;;26.10;80.00;;;;;;5061501;28;20024;-64
2023/10/02 13:03:20;;;;;;;8.60;4.15;;;26.10;79.90;;;;;;5058296;28;20039;-65
2023/10/02 13:05:46;;;;;;;10.35;5.10;;;26.20;79.30;;;;;;5055249;28;20053;-64
2023/10/02 13:08:11;;;;;;;12.77;5.10;;;26.30;79.60;;;;;;5056477;28;20052;-63
2023/10/02 13:10:39;;;;;;;12.18;5.05;;;26.30;78.80;;;;;;5056478;28;20025;-64
2023/10/02 13:13:05;;;;;;;9.02;4.63;;;26.30;78.30;;;;;;5059640;28;20036;-64
2023/10/02 13:15:33;;;;;;;12.35;6.10;;;26.20;78.60;;;;;;5056495;28;20037;-64
2023/10/02 13:17:59;;;;;;;8.50;4.40;;;26.30;78.60;;;;;;5058863;28;20041;-64
2023/10/02 13:20:26;;;;;;;8.93;4.65;;;26.30;79.10;;;;;;5058793;28;20044;-64
2023/10/02 13:22:54;;;;;;;11.95;4.70;;;26.30;79.10;;;;;;5058049;28;20394;-64
2023/10/02 13:25:21;;;;;;;10.75;4.63;;;26.40;79.20;;;;;;5055920;28;20032;-64
2023/10/02 13:27:50;;;;;;;7.47;3.92;;;26.50;78.10;;;;;;5060180;28;20483;-64
2023/10/02 13:30:20;;;;;;;8.02;4.18;;;26.50;78.00;;;;;;5055747;28;21028;-64
2023/10/02 13:32:46;;;;;;;10.70;4.68;;;26.50;78.00;;;;;;5056336;28;20139;-64
2023/10/02 13:35:12;;;;;;;9.95;4.90;;;26.60;77.20;;;;;;5058102;28;20032;-64
2023/10/02 13:37:39;;;;;;;7.68;4.10;;;26.70;77.30;;;;;;5059575;28;20082;-64
2023/10/02 13:40:18;;;;;;;9.98;4.07;;;26.80;76.90;;;;;;5061893;28;20033;-64
2023/10/02 13:42:46;;;;;;;10.05;4.13;;;26.80;77.20;;;;;;5057902;28;20031;-64
2023/10/02 13:45:12;;;;;;;8.68;3.85;;;26.80;76.80;;;;;;5057137;28;20039;-64
2023/10/02 13:47:38;;;;;;;7.75;3.40;;;26.80;76.30;;;;;;5056639;28;20060;-64
2023/10/02 13:50:04;;;;;;;6.93;3.67;;;26.80;77.20;;;;;;5057565;28;20108;-64
2023/10/02 13:52:30;;;;;;;9.82;4.32;;;26.70;77.50;;;;;;5057067;28;20854;-64